Time,TemperatureF,DewpointF,PressureIn,WindDirection,WindDirectionDegrees,WindSpeedMPH,WindSpeedGustMPH,Humidity,HourlyPrecipIn,Conditions,Clouds,dailyrainin,SoftwareType,DateUTC
2013-02-27 00:01:00,3.0,0.0,30.07,West,270,0.0,0.0,86,-99.99,,,-99.99,,2013-02-27 07:01:00,
2013-02-27 00:11:00,2.0,-1.0,30.07,NW,320,3.0,5.0,85,-99.99,,,-99.99,,2013-02-27 07:11:00,
2013-02-27 00:16:00,2.0,-1.0,30.07,NW,320,5.0,5.0,87,-99.99,,,-99.99,,2013-02-27 07:16:00,
2013-02-27 00:21:00,1.0,-1.0,30.07,North,350,5.0,7.0,88,-99.99,,,-99.99,,2013-02-27 07:21:00,
2013-02-27 00:32:00,0.0,-2.0,30.08,NW,320,4.0,6.0,87,-99.99,,,-99.99,,2013-02-27 07:32:00,
2013-02-27 00:42:00,0.0,-3.0,30.08,WNW,290,3.0,6.0,88,-99.99,,,-99.99,,2013-02-27 07:42:00,
2013-02-27 00:52:00,-1.0,-3.0,30.08,NW,320,5.0,5.0,88,-99.99,,,-99.99,,2013-02-27 07:52:00,
2013-02-27 01:01:00,-2.0,-4.0,30.08,North,0,7.0,8.0,89,-99.99,,,-99.99,,2013-02-27 08:01:00,
2013-02-27 01:07:00,-2.0,-5.0,30.09,NW,310,4.0,7.0,88,-99.99,,,-99.99,,2013-02-27 08:07:00,
2013-02-27 01:16:00,-2.0,-4.0,30.09,North,0,4.0,6.0,91,-99.99,,,-99.99,,2013-02-27 08:16:00,
2013-02-27 01:21:00,-3.0,-5.0,30.09,NW,320,3.0,7.0,91,-99.99,,,-99.99,,2013-02-27 08:21:00,
2013-02-27 01:31:00,-3.0,-5.0,30.09,NW,320,6.0,6.0,90,-99.99,,,-99.99,,2013-02-27 08:31:00,
2013-02-27 01:37:00,-4.0,-6.0,30.09,NNW,330,8.0,8.0,90,-99.99,,,-99.99,,2013-02-27 08:37:00,
2013-02-27 01:42:00,-4.0,-6.0,30.10,NW,320,5.0,7.0,90,-99.99,,,-99.99,,2013-02-27 08:42:00,
2013-02-27 01:51:00,-4.0,-6.0,30.10,NNE,20,1.0,5.0,90,-99.99,,,-99.99,,2013-02-27 08:51:00,
2013-02-27 01:57:00,-5.0,-7.0,30.10,NNW,330,4.0,4.0,90,-99.99,,,-99.99,,2013-02-27 08:57:00,
2013-02-27 02:06:00,-5.0,-8.0,30.10,NW,320,10.0,10.0,90,-99.99,,,-99.99,,2013-02-27 09:06:00,
2013-02-27 02:11:00,-5.0,-7.0,30.10,NW,320,9.0,9.0,91,-99.99,,,-99.99,,2013-02-27 09:11:00,
2013-02-27 02:16:00,-5.0,-7.0,30.10,NNW,340,6.0,10.0,92,-99.99,,,-99.99,,2013-02-27 09:16:00,
2013-02-27 02:21:00,-5.0,-6.0,30.10,NNW,340,9.0,9.0,93,-99.99,,,-99.99,,2013-02-27 09:21:00,
2013-02-27 02:31:00,-4.0,-6.0,30.10,NNW,330,0.0,9.0,92,-99.99,,,-99.99,,2013-02-27 09:31:00,
2013-02-27 02:37:00,-4.0,-6.0,30.10,NNW,330,0.0,5.0,92,-99.99,,,-99.99,,2013-02-27 09:37:00,
2013-02-27 02:47:00,-5.0,-6.0,30.11,NNW,330,0.0,0.0,92,-99.99,,,-99.99,,2013-02-27 09:47:00,
2013-02-27 02:57:00,-5.0,-6.0,30.11,NNW,330,0.0,0.0,92,-99.99,,,-99.99,,2013-02-27 09:57:00,
2013-02-27 03:06:00,-5.0,-7.0,30.11,NNW,330,0.0,0.0,91,-99.99,,,-99.99,,2013-02-27 10:06:00,
2013-02-27 03:11:00,-6.0,-8.0,30.11,NNW,330,0.0,0.0,91,-99.99,,,-99.99,,2013-02-27 10:11:00,
2013-02-27 03:16:00,-6.0,-8.0,30.11,North,0,0.0,7.0,91,-99.99,,,-99.99,,2013-02-27 10:16:00,
2013-02-27 03:31:00,-7.0,-9.0,30.11,North,0,0.0,0.0,91,-99.99,,,-99.99,,2013-02-27 10:31:00,
2013-02-27 03:37:00,-10.0,-12.0,30.11,North,0,0.0,0.0,90,-99.99,,,-99.99,,2013-02-27 10:37:00,
2013-02-27 03:47:00,-11.0,-12.0,30.12,North,0,0.0,0.0,91,-99.99,,,-99.99,,2013-02-27 10:47:00,
2013-02-27 03:52:00,-10.0,-12.0,30.12,North,0,0.0,0.0,92,-99.99,,,-99.99,,2013-02-27 10:52:00,
2013-02-27 03:57:00,-10.0,-12.0,30.12,North,0,0.0,0.0,92,-99.99,,,-99.99,,2013-02-27 10:57:00,
2013-02-27 04:02:00,-11.0,-12.0,30.12,North,0,0.0,0.0,92,-99.99,,,-99.99,,2013-02-27 11:02:00,
2013-02-27 04:11:00,-9.0,-10.0,30.12,North,0,0.0,0.0,93,-99.99,,,-99.99,,2013-02-27 11:11:00,
2013-02-27 04:16:00,-9.0,-10.0,30.12,North,0,0.0,0.0,92,-99.99,,,-99.99,,2013-02-27 11:16:00,
2013-02-27 04:21:00,-9.0,-11.0,30.12,North,0,0.0,0.0,91,-99.99,,,-99.99,,2013-02-27 11:21:00,
2013-02-27 04:26:00,-10.0,-11.0,30.12,North,0,0.0,0.0,92,-99.99,,,-99.99,,2013-02-27 11:26:00,
2013-02-27 04:31:00,-9.0,-11.0,30.13,North,0,0.0,0.0,93,-99.99,,,-99.99,,2013-02-27 11:31:00,
2013-02-27 04:41:00,-9.0,-11.0,30.13,North,0,0.0,0.0,92,-99.99,,,-99.99,,2013-02-27 11:41:00,
2013-02-27 04:52:00,-10.0,-12.0,30.14,North,0,0.0,0.0,92,-99.99,,,-99.99,,2013-02-27 11:52:00,
2013-02-27 05:02:00,-11.0,-12.0,30.14,North,0,0.0,0.0,92,-99.99,,,-99.99,,2013-02-27 12:02:00,
2013-02-27 05:11:00,-11.0,-13.0,30.14,North,0,0.0,0.0,92,-99.99,,,-99.99,,2013-02-27 12:11:00,
2013-02-27 05:21:00,-11.0,-12.0,30.14,North,0,0.0,0.0,93,-99.99,,,-99.99,,2013-02-27 12:21:00,
2013-02-27 05:31:00,-11.0,-13.0,30.14,North,0,0.0,0.0,92,-99.99,,,-99.99,,2013-02-27 12:31:00,
2013-02-27 05:42:00,-12.0,-13.0,30.15,North,0,0.0,0.0,92,-99.99,,,-99.99,,2013-02-27 12:42:00,
2013-02-27 05:52:00,-12.0,-14.0,30.16,North,0,0.0,0.0,92,-99.99,,,-99.99,,2013-02-27 12:52:00,
2013-02-27 05:57:00,-12.0,-14.0,30.16,North,0,0.0,0.0,92,-99.99,,,-99.99,,2013-02-27 12:57:00,
2013-02-27 06:02:00,-12.0,-14.0,30.16,North,0,0.0,0.0,92,-99.99,,,-99.99,,2013-02-27 13:02:00,
2013-02-27 06:07:00,-12.0,-14.0,30.16,North,0,0.0,0.0,92,-99.99,,,-99.99,,2013-02-27 13:07:00,
2013-02-27 06:16:00,-13.0,-15.0,30.16,North,0,0.0,0.0,91,-99.99,,,-99.99,,2013-02-27 13:16:00,
2013-02-27 06:21:00,-13.0,-15.0,30.17,North,0,0.0,0.0,91,-99.99,,,-99.99,,2013-02-27 13:21:00,
2013-02-27 06:32:00,-14.0,-15.0,30.17,North,0,0.0,0.0,91,-99.99,,,-99.99,,2013-02-27 13:32:00,
2013-02-27 06:41:00,-14.0,-16.0,30.18,North,0,0.0,0.0,91,-99.99,,,-99.99,,2013-02-27 13:41:00,
2013-02-27 06:46:00,-14.0,-16.0,30.18,North,0,0.0,0.0,92,-99.99,,,-99.99,,2013-02-27 13:46:00,
2013-02-27 07:01:00,-14.0,-16.0,30.19,North,0,0.0,0.0,92,-99.99,,,-99.99,,2013-02-27 14:01:00,
2013-02-27 07:07:00,-15.0,-16.0,30.19,North,0,0.0,0.0,92,-99.99,,,-99.99,,2013-02-27 14:07:00,
2013-02-27 07:12:00,-14.0,-16.0,30.19,North,0,0.0,0.0,92,-99.99,,,-99.99,,2013-02-27 14:12:00,
2013-02-27 07:17:00,-14.0,-15.0,30.19,North,0,0.0,0.0,92,-99.99,,,-99.99,,2013-02-27 14:17:00,
2013-02-27 07:26:00,-13.0,-14.0,30.19,North,0,0.0,0.0,92,-99.99,,,-99.99,,2013-02-27 14:26:00,
2013-02-27 07:36:00,-12.0,-13.0,30.19,North,0,0.0,0.0,92,-99.99,,,-99.99,,2013-02-27 14:36:00,
2013-02-27 07:41:00,-10.0,-12.0,30.20,North,0,0.0,0.0,92,-99.99,,,-99.99,,2013-02-27 14:41:00,
2013-02-27 07:46:00,-9.0,-11.0,30.20,North,0,0.0,0.0,90,-99.99,,,-99.99,,2013-02-27 14:46:00,
2013-02-27 07:51:00,-10.0,-12.0,30.21,North,0,0.0,0.0,87,-99.99,,,-99.99,,2013-02-27 14:51:00,
2013-02-27 08:02:00,-10.0,-12.0,30.21,North,0,0.0,0.0,88,-99.99,,,-99.99,,2013-02-27 15:02:00,
2013-02-27 08:12:00,-9.0,-11.0,30.21,North,0,0.0,0.0,88,-99.99,,,-99.99,,2013-02-27 15:12:00,
2013-02-27 08:21:00,-8.0,-11.0,30.21,North,0,0.0,0.0,89,-99.99,,,-99.99,,2013-02-27 15:21:00,
2013-02-27 08:26:00,-8.0,-10.0,30.21,North,0,0.0,0.0,90,-99.99,,,-99.99,,2013-02-27 15:26:00,
2013-02-27 08:31:00,-8.0,-10.0,30.22,North,0,0.0,0.0,89,-99.99,,,-99.99,,2013-02-27 15:31:00,
2013-02-27 08:41:00,-5.0,-7.0,30.23,North,0,0.0,0.0,89,-99.99,,,-99.99,,2013-02-27 15:41:00,
2013-02-27 08:51:00,-4.0,-7.0,30.23,North,0,0.0,0.0,88,-99.99,,,-99.99,,2013-02-27 15:51:00,
2013-02-27 09:02:00,-3.0,-6.0,30.24,North,0,0.0,0.0,88,-99.99,,,-99.99,,2013-02-27 16:02:00,
2013-02-27 09:07:00,-3.0,-6.0,30.23,North,0,0.0,0.0,88,-99.99,,,-99.99,,2013-02-27 16:07:00,
2013-02-27 09:12:00,-2.0,-5.0,30.23,North,0,0.0,0.0,87,-99.99,,,-99.99,,2013-02-27 16:12:00,
2013-02-27 09:17:00,-2.0,-5.0,30.23,North,0,0.0,0.0,86,-99.99,,,-99.99,,2013-02-27 16:17:00,
2013-02-27 09:26:00,-1.0,-4.0,30.24,North,0,0.0,0.0,86,-99.99,,,-99.99,,2013-02-27 16:26:00,
2013-02-27 09:31:00,-1.0,-4.0,30.24,North,0,0.0,0.0,86,-99.99,,,-99.99,,2013-02-27 16:31:00,
2013-02-27 09:36:00,0.0,-3.0,30.24,North,0,0.0,0.0,86,-99.99,,,-99.99,,2013-02-27 16:36:00,
2013-02-27 09:41:00,0.0,-3.0,30.24,North,0,0.0,0.0,86,-99.99,,,-99.99,,2013-02-27 16:41:00,
2013-02-27 09:46:00,1.0,-2.0,30.24,North,0,0.0,0.0,86,-99.99,,,-99.99,,2013-02-27 16:46:00,
2013-02-27 09:51:00,2.0,-2.0,30.23,North,0,0.0,0.0,84,-99.99,,,-99.99,,2013-02-27 16:51:00,
2013-02-27 09:56:00,3.0,-1.0,30.23,North,0,0.0,0.0,83,-99.99,,,-99.99,,2013-02-27 16:56:00,
2013-02-27 10:02:00,3.0,-1.0,30.23,North,0,0.0,0.0,82,-99.99,,,-99.99,,2013-02-27 17:02:00,
2013-02-27 10:07:00,3.0,-1.0,30.23,North,0,0.0,0.0,82,-99.99,,,-99.99,,2013-02-27 17:07:00,
2013-02-27 10:17:00,4.0,0.0,30.23,North,0,0.0,0.0,81,-99.99,,,-99.99,,2013-02-27 17:17:00,
2013-02-27 10:22:00,5.0,0.0,30.23,North,0,0.0,0.0,80,-99.99,,,-99.99,,2013-02-27 17:22:00,
2013-02-27 10:31:00,5.0,-1.0,30.23,North,0,0.0,0.0,78,-99.99,,,-99.99,,2013-02-27 17:31:00,
2013-02-27 10:36:00,6.0,1.0,30.23,North,0,0.0,0.0,79,-99.99,,,-99.99,,2013-02-27 17:36:00,
2013-02-27 10:46:00,7.0,2.0,30.23,North,0,0.0,0.0,79,-99.99,,,-99.99,,2013-02-27 17:46:00,
2013-02-27 10:51:00,7.0,2.0,30.23,North,0,0.0,0.0,80,-99.99,,,-99.99,,2013-02-27 17:51:00,
2013-02-27 10:56:00,8.0,2.0,30.23,North,0,0.0,0.0,79,-99.99,,,-99.99,,2013-02-27 17:56:00,
2013-02-27 11:02:00,8.0,3.0,30.23,North,0,0.0,0.0,79,-99.99,,,-99.99,,2013-02-27 18:02:00,
2013-02-27 11:07:00,8.0,2.0,30.23,North,0,0.0,0.0,78,-99.99,,,-99.99,,2013-02-27 18:07:00,
2013-02-27 11:12:00,8.0,2.0,30.23,North,0,0.0,0.0,78,-99.99,,,-99.99,,2013-02-27 18:12:00,
2013-02-27 11:22:00,6.0,1.0,30.23,North,0,0.0,0.0,79,-99.99,,,-99.99,,2013-02-27 18:22:00,
2013-02-27 11:31:00,9.0,4.0,30.24,North,0,0.0,0.0,78,-99.99,,,-99.99,,2013-02-27 18:31:00,
2013-02-27 11:36:00,9.0,4.0,30.24,SE,140,6.0,10.0,79,-99.99,,,-99.99,,2013-02-27 18:36:00,
2013-02-27 11:41:00,9.0,4.0,30.24,SE,140,5.0,11.0,80,-99.99,,,-99.99,,2013-02-27 18:41:00,
2013-02-27 11:51:00,9.0,5.0,30.24,East,100,6.0,10.0,82,-99.99,,,-99.99,,2013-02-27 18:51:00,
2013-02-27 11:56:00,9.0,5.0,30.24,East,100,4.0,11.0,82,-99.99,,,-99.99,,2013-02-27 18:56:00,
2013-02-27 12:01:00,10.0,6.0,30.24,ESE,110,6.0,11.0,83,-99.99,,,-99.99,,2013-02-27 19:01:00,
2013-02-27 12:07:00,11.0,6.0,30.24,SE,140,3.0,9.0,83,-99.99,,,-99.99,,2013-02-27 19:07:00,
2013-02-27 12:12:00,11.0,7.0,30.24,South,170,3.0,9.0,83,-99.99,,,-99.99,,2013-02-27 19:12:00,
2013-02-27 12:17:00,11.0,7.0,30.23,SSE,150,7.0,10.0,83,-99.99,,,-99.99,,2013-02-27 19:17:00,
2013-02-27 12:27:00,12.0,8.0,30.23,ESE,120,6.0,10.0,84,-99.99,,,-99.99,,2013-02-27 19:27:00,
2013-02-27 12:36:00,13.0,8.0,30.23,SE,140,9.0,12.0,82,-99.99,,,-99.99,,2013-02-27 19:36:00,
2013-02-27 12:41:00,13.0,9.0,30.23,SSE,150,7.0,10.0,82,-99.99,,,-99.99,,2013-02-27 19:41:00,
2013-02-27 12:46:00,14.0,9.0,30.23,ENE,70,3.0,9.0,81,-99.99,,,-99.99,,2013-02-27 19:46:00,
2013-02-27 12:51:00,14.0,9.0,30.22,SSE,150,0.0,9.0,81,-99.99,,,-99.99,,2013-02-27 19:51:00,
2013-02-27 12:56:00,14.0,9.0,30.22,SSE,150,8.0,10.0,81,-99.99,,,-99.99,,2013-02-27 19:56:00,
2013-02-27 13:01:00,14.0,9.0,30.22,SE,130,4.0,9.0,80,-99.99,,,-99.99,,2013-02-27 20:01:00,
2013-02-27 13:06:00,15.0,10.0,30.22,South,180,6.0,9.0,81,-99.99,,,-99.99,,2013-02-27 20:06:00,
2013-02-27 13:12:00,15.0,10.0,30.22,SSE,160,5.0,9.0,80,-99.99,,,-99.99,,2013-02-27 20:12:00,
2013-02-27 13:17:00,15.0,9.0,30.22,SE,140,5.0,10.0,79,-99.99,,,-99.99,,2013-02-27 20:17:00,
2013-02-27 13:22:00,15.0,9.0,30.22,SSE,150,8.0,13.0,79,-99.99,,,-99.99,,2013-02-27 20:22:00,
2013-02-27 13:27:00,15.0,9.0,30.22,SE,140,12.0,12.0,79,-99.99,,,-99.99,,2013-02-27 20:27:00,
2013-02-27 13:36:00,14.0,9.0,30.22,SE,140,10.0,10.0,79,-99.99,,,-99.99,,2013-02-27 20:36:00,
2013-02-27 13:46:00,15.0,9.0,30.22,SSE,150,7.0,10.0,79,-99.99,,,-99.99,,2013-02-27 20:46:00,
2013-02-27 13:56:00,15.0,9.0,30.22,East,90,3.0,9.0,79,-99.99,,,-99.99,,2013-02-27 20:56:00,
2013-02-27 14:01:00,15.0,9.0,30.22,ESE,110,6.0,8.0,79,-99.99,,,-99.99,,2013-02-27 21:01:00,
2013-02-27 14:11:00,15.0,9.0,30.22,SE,130,5.0,6.0,78,-99.99,,,-99.99,,2013-02-27 21:11:00,
2013-02-27 14:22:00,16.0,10.0,30.22,ESE,120,5.0,6.0,78,-99.99,,,-99.99,,2013-02-27 21:22:00,
2013-02-27 14:27:00,16.0,10.0,30.22,SE,130,0.0,9.0,78,-99.99,,,-99.99,,2013-02-27 21:27:00,
2013-02-27 14:37:00,16.0,10.0,30.22,SSE,160,6.0,7.0,78,-99.99,,,-99.99,,2013-02-27 21:37:00,
2013-02-27 14:46:00,15.0,9.0,30.22,South,170,7.0,7.0,77,-99.99,,,-99.99,,2013-02-27 21:46:00,
2013-02-27 14:56:00,15.0,9.0,30.22,SE,140,5.0,8.0,76,-99.99,,,-99.99,,2013-02-27 21:56:00,
2013-02-27 15:01:00,15.0,9.0,30.22,East,80,0.0,7.0,76,-99.99,,,-99.99,,2013-02-27 22:01:00,
2013-02-27 15:11:00,15.0,9.0,30.22,SSE,160,5.0,6.0,76,-99.99,,,-99.99,,2013-02-27 22:11:00,
2013-02-27 15:16:00,15.0,9.0,30.22,South,170,7.0,7.0,76,-99.99,,,-99.99,,2013-02-27 22:16:00,
2013-02-27 15:22:00,16.0,9.0,30.22,South,170,5.0,8.0,75,-99.99,,,-99.99,,2013-02-27 22:22:00,
2013-02-27 15:27:00,16.0,9.0,30.22,SSE,160,5.0,7.0,75,-99.99,,,-99.99,,2013-02-27 22:27:00,
2013-02-27 15:37:00,16.0,9.0,30.22,South,180,6.0,9.0,75,-99.99,,,-99.99,,2013-02-27 22:37:00,
2013-02-27 15:42:00,16.0,10.0,30.22,SSE,150,4.0,8.0,75,-99.99,,,-99.99,,2013-02-27 22:42:00,
2013-02-27 15:51:00,16.0,9.0,30.22,SE,130,4.0,7.0,75,-99.99,,,-99.99,,2013-02-27 22:51:00,
2013-02-27 16:01:00,16.0,9.0,30.22,South,170,6.0,7.0,75,-99.99,,,-99.99,,2013-02-27 23:01:00,
2013-02-27 16:06:00,16.0,9.0,30.23,South,170,5.0,7.0,76,-99.99,,,-99.99,,2013-02-27 23:06:00,
2013-02-27 16:11:00,16.0,9.0,30.23,SE,140,4.0,9.0,76,-99.99,,,-99.99,,2013-02-27 23:11:00,
2013-02-27 16:16:00,15.0,9.0,30.23,SSE,150,6.0,8.0,75,-99.99,,,-99.99,,2013-02-27 23:16:00,
2013-02-27 16:27:00,15.0,9.0,30.23,South,170,8.0,8.0,77,-99.99,,,-99.99,,2013-02-27 23:27:00,
2013-02-27 16:32:00,15.0,9.0,30.23,South,170,5.0,10.0,77,-99.99,,,-99.99,,2013-02-27 23:32:00,
2013-02-27 16:42:00,15.0,9.0,30.24,SSE,150,5.0,8.0,77,-99.99,,,-99.99,,2013-02-27 23:42:00,
2013-02-27 16:47:00,15.0,9.0,30.24,SE,130,0.0,6.0,76,-99.99,,,-99.99,,2013-02-27 23:47:00,
2013-02-27 16:56:00,15.0,9.0,30.24,SE,130,0.0,0.0,76,-99.99,,,-99.99,,2013-02-27 23:56:00,
2013-02-27 17:01:00,15.0,9.0,30.24,SE,130,0.0,0.0,77,-99.99,,,-99.99,,2013-02-28 00:01:00,
2013-02-27 17:06:00,15.0,9.0,30.24,SE,130,0.0,0.0,76,-99.99,,,-99.99,,2013-02-28 00:06:00,
2013-02-27 17:16:00,15.0,8.0,30.24,SE,130,0.0,0.0,76,-99.99,,,-99.99,,2013-02-28 00:16:00,
2013-02-27 17:21:00,14.0,8.0,30.24,SE,130,0.0,0.0,76,-99.99,,,-99.99,,2013-02-28 00:21:00,
2013-02-27 17:27:00,14.0,7.0,30.24,SE,130,0.0,0.0,76,-99.99,,,-99.99,,2013-02-28 00:27:00,
2013-02-27 17:32:00,13.0,7.0,30.24,SE,130,0.0,0.0,77,-99.99,,,-99.99,,2013-02-28 00:32:00,
2013-02-27 17:42:00,12.0,6.0,30.24,SE,130,0.0,0.0,78,-99.99,,,-99.99,,2013-02-28 00:42:00,
2013-02-27 17:47:00,11.0,6.0,30.25,SE,130,0.0,0.0,79,-99.99,,,-99.99,,2013-02-28 00:47:00,
2013-02-27 17:56:00,10.0,4.0,30.24,SE,130,0.0,0.0,77,-99.99,,,-99.99,,2013-02-28 00:56:00,
2013-02-27 18:01:00,9.0,3.0,30.24,SE,130,0.0,0.0,78,-99.99,,,-99.99,,2013-02-28 01:01:00,
2013-02-27 18:11:00,8.0,2.0,30.24,SE,130,0.0,0.0,79,-99.99,,,-99.99,,2013-02-28 01:11:00,
2013-02-27 18:16:00,7.0,2.0,30.24,SE,130,0.0,0.0,81,-99.99,,,-99.99,,2013-02-28 01:16:00,
2013-02-27 18:21:00,7.0,3.0,30.24,SE,130,0.0,0.0,82,-99.99,,,-99.99,,2013-02-28 01:21:00,
2013-02-27 18:26:00,6.0,1.0,30.24,SE,130,0.0,0.0,81,-99.99,,,-99.99,,2013-02-28 01:26:00,
2013-02-27 18:37:00,6.0,2.0,30.25,SE,130,0.0,0.0,82,-99.99,,,-99.99,,2013-02-28 01:37:00,
2013-02-27 18:46:00,5.0,1.0,30.25,SE,130,0.0,0.0,82,-99.99,,,-99.99,,2013-02-28 01:46:00,
2013-02-27 18:52:00,5.0,0.0,30.25,SE,130,0.0,0.0,82,-99.99,,,-99.99,,2013-02-28 01:52:00,
2013-02-27 19:01:00,5.0,1.0,30.25,SE,130,0.0,0.0,84,-99.99,,,-99.99,,2013-02-28 02:01:00,
2013-02-27 19:06:00,5.0,1.0,30.25,SE,130,0.0,0.0,85,-99.99,,,-99.99,,2013-02-28 02:06:00,
2013-02-27 19:12:00,4.0,1.0,30.25,SE,130,0.0,0.0,84,-99.99,,,-99.99,,2013-02-28 02:12:00,
2013-02-27 19:21:00,4.0,0.0,30.25,SE,130,0.0,0.0,85,-99.99,,,-99.99,,2013-02-28 02:21:00,
2013-02-27 19:32:00,3.0,0.0,30.25,SE,130,0.0,0.0,87,-99.99,,,-99.99,,2013-02-28 02:32:00,
2013-02-27 19:42:00,4.0,1.0,30.26,SE,130,0.0,0.0,88,-99.99,,,-99.99,,2013-02-28 02:42:00,
2013-02-27 19:47:00,4.0,1.0,30.26,SE,130,0.0,0.0,88,-99.99,,,-99.99,,2013-02-28 02:47:00,
2013-02-27 19:52:00,4.0,1.0,30.26,SE,130,0.0,0.0,88,-99.99,,,-99.99,,2013-02-28 02:52:00,
2013-02-27 19:57:00,4.0,1.0,30.26,SE,130,0.0,0.0,88,-99.99,,,-99.99,,2013-02-28 02:57:00,
2013-02-27 20:06:00,4.0,1.0,30.26,SE,130,0.0,0.0,88,-99.99,,,-99.99,,2013-02-28 03:06:00,
2013-02-27 20:12:00,3.0,1.0,30.26,SE,130,0.0,0.0,88,-99.99,,,-99.99,,2013-02-28 03:12:00,
2013-02-27 20:21:00,3.0,1.0,30.27,SE,130,0.0,0.0,89,-99.99,,,-99.99,,2013-02-28 03:21:00,
2013-02-27 20:26:00,3.0,1.0,30.26,SE,130,0.0,0.0,89,-99.99,,,-99.99,,2013-02-28 03:26:00,
2013-02-27 20:37:00,3.0,0.0,30.27,SE,130,0.0,0.0,90,-99.99,,,-99.99,,2013-02-28 03:37:00,
2013-02-27 20:47:00,3.0,0.0,30.27,SE,130,0.0,0.0,90,-99.99,,,-99.99,,2013-02-28 03:47:00,
2013-02-27 20:57:00,3.0,0.0,30.27,SE,130,0.0,0.0,90,-99.99,,,-99.99,,2013-02-28 03:57:00,
2013-02-27 21:06:00,2.0,0.0,30.26,SE,130,0.0,0.0,89,-99.99,,,-99.99,,2013-02-28 04:06:00,
2013-02-27 21:11:00,2.0,0.0,30.26,SE,130,0.0,0.0,89,-99.99,,,-99.99,,2013-02-28 04:11:00,
2013-02-27 21:16:00,2.0,0.0,30.27,SE,130,0.0,0.0,89,-99.99,,,-99.99,,2013-02-28 04:16:00,
2013-02-27 21:26:00,2.0,0.0,30.27,SE,130,0.0,0.0,89,-99.99,,,-99.99,,2013-02-28 04:26:00,
2013-02-27 21:36:00,1.0,-1.0,30.27,SE,130,0.0,0.0,88,-99.99,,,-99.99,,2013-02-28 04:36:00,
2013-02-27 21:42:00,1.0,-2.0,30.26,SE,130,0.0,0.0,87,-99.99,,,-99.99,,2013-02-28 04:42:00,
2013-02-27 21:47:00,1.0,-2.0,30.27,SE,130,0.0,0.0,88,-99.99,,,-99.99,,2013-02-28 04:47:00,
2013-02-27 21:52:00,0.0,-2.0,30.27,SE,130,0.0,0.0,88,-99.99,,,-99.99,,2013-02-28 04:52:00,
2013-02-27 21:57:00,1.0,-2.0,30.27,SE,130,0.0,0.0,88,-99.99,,,-99.99,,2013-02-28 04:57:00,
2013-02-27 22:02:00,1.0,-2.0,30.27,SE,130,0.0,0.0,89,-99.99,,,-99.99,,2013-02-28 05:02:00,
2013-02-27 22:07:00,1.0,-2.0,30.27,SE,130,0.0,0.0,89,-99.99,,,-99.99,,2013-02-28 05:07:00,
2013-02-27 22:16:00,0.0,-3.0,30.27,NW,310,5.0,0.0,87,-99.99,,,-99.99,,2013-02-28 05:16:00,
2013-02-27 22:21:00,0.0,-2.0,30.27,WNW,300,6.0,7.0,88,-99.99,,,-99.99,,2013-02-28 05:21:00,
2013-02-27 22:26:00,0.0,-3.0,30.27,NW,310,0.0,6.0,87,-99.99,,,-99.99,,2013-02-28 05:26:00,
2013-02-27 22:31:00,0.0,-3.0,30.27,NW,320,5.0,6.0,87,-99.99,,,-99.99,,2013-02-28 05:31:00,
2013-02-27 22:36:00,0.0,-3.0,30.27,North,350,3.0,7.0,87,-99.99,,,-99.99,,2013-02-28 05:36:00,
2013-02-27 22:42:00,-1.0,-4.0,30.27,North,0,5.0,6.0,87,-99.99,,,-99.99,,2013-02-28 05:42:00,
2013-02-27 22:52:00,-1.0,-4.0,30.27,NNW,340,0.0,5.0,87,-99.99,,,-99.99,,2013-02-28 05:52:00,
2013-02-27 22:56:00,-1.0,-4.0,30.27,NW,320,10.0,10.0,87,-99.99,,,-99.99,,2013-02-28 05:56:00,
2013-02-27 23:02:00,-1.0,-4.0,30.26,WNW,300,11.0,11.0,88,-99.99,,,-99.99,,2013-02-28 06:02:00,
2013-02-27 23:11:00,-1.0,-4.0,30.26,North,0,0.0,8.0,88,-99.99,,,-99.99,,2013-02-28 06:11:00,
2013-02-27 23:21:00,-1.0,-4.0,30.27,North,350,10.0,10.0,88,-99.99,,,-99.99,,2013-02-28 06:21:00,
2013-02-27 23:31:00,-1.0,-4.0,30.27,NNW,340,10.0,12.0,87,-99.99,,,-99.99,,2013-02-28 06:31:00,
2013-02-27 23:41:00,-2.0,-5.0,30.26,NNW,340,6.0,10.0,88,-99.99,,,-99.99,,2013-02-28 06:41:00,
2013-02-27 23:47:00,-2.0,-4.0,30.26,NNW,340,5.0,8.0,90,-99.99,,,-99.99,,2013-02-28 06:47:00,
2013-02-27 23:52:00,-1.0,-4.0,30.26,NNW,340,0.0,9.0,89,-99.99,,,-99.99,,2013-02-28 06:52:00,